createdAt,value
2017-06-13T00:00:27.119Z,0
2017-06-13T00:01:27.134Z,0
2017-06-13T00:02:27.147Z,0
2017-06-13T00:03:27.141Z,0
2017-06-13T00:04:27.063Z,0
2017-06-13T00:05:27.121Z,0
2017-06-13T00:06:27.148Z,0
2017-06-13T00:07:27.223Z,0
2017-06-13T00:08:27.119Z,0
2017-06-13T00:09:27.122Z,0
2017-06-13T00:10:27.123Z,0
2017-06-13T00:11:27.127Z,0
2017-06-13T00:12:27.127Z,0
2017-06-13T00:13:27.104Z,0
2017-06-13T00:14:27.125Z,0
2017-06-13T00:15:27.213Z,0
2017-06-13T00:16:27.130Z,0
2017-06-13T00:17:27.139Z,0
2017-06-13T00:18:27.066Z,0
2017-06-13T00:19:27.140Z,0
2017-06-13T00:20:27.138Z,0
2017-06-13T00:21:27.139Z,0
2017-06-13T00:22:27.140Z,0
2017-06-13T00:23:27.146Z,0
2017-06-13T00:24:27.145Z,0
2017-06-13T00:25:27.141Z,0
2017-06-13T00:26:27.143Z,0
2017-06-13T00:27:27.150Z,0
2017-06-13T00:28:27.159Z,0
2017-06-13T00:29:27.162Z,0
2017-06-13T00:30:27.095Z,0
2017-06-13T00:31:27.134Z,0
2017-06-13T00:32:27.134Z,0
2017-06-13T00:33:27.132Z,0
2017-06-13T00:34:27.171Z,0
2017-06-13T00:35:27.162Z,0
2017-06-13T00:36:27.172Z,0
2017-06-13T00:37:27.149Z,0
2017-06-13T00:38:27.152Z,0
2017-06-13T00:39:27.152Z,0
2017-06-13T00:40:27.153Z,0
2017-06-13T00:41:27.141Z,0
2017-06-13T00:42:27.160Z,0
2017-06-13T00:43:27.151Z,0
2017-06-13T00:44:27.155Z,0
2017-06-13T00:45:27.156Z,0
2017-06-13T00:46:27.155Z,0
2017-06-13T00:47:27.165Z,0
2017-06-13T00:48:27.176Z,0
2017-06-13T00:49:27.170Z,0
2017-06-13T00:50:27.089Z,0
2017-06-13T00:51:27.098Z,0
2017-06-13T00:52:27.157Z,0
2017-06-13T00:53:27.183Z,0
2017-06-13T00:54:27.096Z,0
2017-06-13T00:55:27.165Z,0
2017-06-13T00:56:27.183Z,0
2017-06-13T00:57:27.161Z,0
2017-06-13T00:58:27.162Z,0
2017-06-13T00:59:27.163Z,0
2017-06-13T01:00:27.163Z,0
2017-06-13T01:01:27.166Z,0
2017-06-13T01:02:27.166Z,0
2017-06-13T01:03:27.165Z,0
2017-06-13T01:04:27.162Z,0
2017-06-13T01:05:27.155Z,0
2017-06-13T01:06:27.169Z,0
2017-06-13T01:07:27.165Z,0
2017-06-13T01:08:27.169Z,0
2017-06-13T01:09:27.168Z,0
2017-06-13T01:10:27.166Z,0
2017-06-13T01:11:27.139Z,0
2017-06-13T01:12:27.170Z,0
2017-06-13T01:13:27.166Z,0
2017-06-13T01:14:27.167Z,0
2017-06-13T01:15:27.153Z,0
2017-06-13T01:16:27.174Z,0
2017-06-13T01:17:27.159Z,0
2017-06-13T01:18:27.158Z,0
2017-06-13T01:19:27.162Z,0
2017-06-13T01:20:27.163Z,0
2017-06-13T01:21:27.162Z,0
2017-06-13T01:22:27.160Z,0
2017-06-13T01:23:27.162Z,0
2017-06-13T01:24:27.163Z,0
2017-06-13T01:25:27.159Z,0
2017-06-13T01:26:27.169Z,0
2017-06-13T01:27:27.113Z,0
2017-06-13T01:28:27.116Z,0
2017-06-13T01:29:27.187Z,0
2017-06-13T01:30:27.270Z,0
2017-06-13T01:31:27.161Z,0
2017-06-13T01:32:27.111Z,0
2017-06-13T01:33:27.172Z,0
2017-06-13T01:34:27.195Z,0
2017-06-13T01:35:27.194Z,0
2017-06-13T01:36:27.135Z,0
2017-06-13T01:37:27.197Z,0
2017-06-13T01:38:27.195Z,0
2017-06-13T01:39:27.190Z,0
2017-06-13T01:40:27.186Z,0
2017-06-13T01:41:27.199Z,0
2017-06-13T01:42:27.189Z,0
2017-06-13T01:43:27.189Z,0
2017-06-13T01:44:27.190Z,0
2017-06-13T01:45:27.189Z,0
2017-06-13T01:46:27.204Z,0
2017-06-13T01:47:27.190Z,0
2017-06-13T01:48:27.172Z,0
2017-06-13T01:49:27.191Z,0
2017-06-13T01:50:27.120Z,0
2017-06-13T01:51:27.171Z,0
2017-06-13T01:52:27.176Z,0
2017-06-13T01:53:27.121Z,0
2017-06-13T01:54:27.173Z,0
2017-06-13T01:55:27.216Z,0
2017-06-13T01:56:27.119Z,0
2017-06-13T01:57:27.127Z,0
2017-06-13T01:58:27.193Z,0
2017-06-13T01:59:27.190Z,0
2017-06-13T02:00:27.198Z,0
2017-06-13T02:01:27.199Z,0
2017-06-13T02:02:27.200Z,0
2017-06-13T02:03:27.196Z,0
2017-06-13T02:04:27.197Z,0
2017-06-13T02:05:27.197Z,0
2017-06-13T02:06:27.200Z,0
2017-06-13T02:07:27.201Z,0
2017-06-13T02:08:27.212Z,0
2017-06-13T02:09:27.200Z,0
2017-06-13T02:10:27.215Z,0
2017-06-13T02:11:27.214Z,0
2017-06-13T02:12:27.201Z,0
2017-06-13T02:13:27.200Z,0
2017-06-13T02:14:27.217Z,0
2017-06-13T02:15:27.216Z,0
2017-06-13T02:16:27.219Z,0
2017-06-13T02:17:27.206Z,0
2017-06-13T02:18:27.204Z,0
2017-06-13T02:19:27.154Z,0
2017-06-13T02:20:27.222Z,0
2017-06-13T02:21:27.221Z,0
2017-06-13T02:22:27.140Z,0
2017-06-13T02:23:27.216Z,0
2017-06-13T02:24:27.234Z,0
2017-06-13T02:25:27.145Z,0
2017-06-13T02:26:27.161Z,0
2017-06-13T02:27:27.147Z,0
2017-06-13T02:28:27.224Z,0
2017-06-13T02:29:27.232Z,0
2017-06-13T02:30:27.149Z,0
2017-06-13T02:31:27.213Z,0
2017-06-13T02:32:27.228Z,0
2017-06-13T02:33:27.236Z,0
2017-06-13T02:34:27.242Z,0
2017-06-13T02:35:27.229Z,0
2017-06-13T02:36:27.223Z,0
2017-06-13T02:37:27.153Z,0
2017-06-13T02:38:27.153Z,0
2017-06-13T02:39:27.167Z,0
2017-06-13T02:40:27.202Z,0
2017-06-13T02:41:27.155Z,0
2017-06-13T02:42:27.222Z,0
2017-06-13T02:43:27.241Z,0
2017-06-13T02:44:27.243Z,0
2017-06-13T02:45:27.205Z,0
2017-06-13T02:46:27.232Z,0
2017-06-13T02:47:27.223Z,0
2017-06-13T02:48:27.241Z,5
2017-06-13T02:49:27.240Z,5
2017-06-13T02:50:27.222Z,5
2017-06-13T02:51:27.237Z,5
2017-06-13T02:52:27.154Z,5
2017-06-13T02:53:27.245Z,5
2017-06-13T02:54:27.249Z,5
2017-06-13T02:55:27.157Z,5
2017-06-13T02:56:27.233Z,5
2017-06-13T02:57:27.239Z,5
2017-06-13T02:58:27.227Z,5
2017-06-13T02:59:27.222Z,5
2017-06-13T03:00:27.231Z,5
2017-06-13T03:01:27.227Z,5
2017-06-13T03:02:27.231Z,5
2017-06-13T03:03:27.228Z,11
2017-06-13T03:04:27.231Z,11
2017-06-13T03:05:27.232Z,11
2017-06-13T03:06:27.245Z,11
2017-06-13T03:07:27.231Z,11
2017-06-13T03:08:27.165Z,11
2017-06-13T03:09:27.261Z,11
2017-06-13T03:10:27.249Z,11
2017-06-13T03:11:27.214Z,16
2017-06-13T03:12:27.168Z,16
2017-06-13T03:13:27.258Z,22
2017-06-13T03:14:27.240Z,22
2017-06-13T03:15:27.236Z,22
2017-06-13T03:16:27.257Z,28
2017-06-13T03:17:27.171Z,28
2017-06-13T03:18:27.262Z,28
2017-06-13T03:19:27.166Z,33
2017-06-13T03:20:27.256Z,33
2017-06-13T03:21:27.177Z,33
2017-06-13T03:22:27.260Z,33
2017-06-13T03:23:27.251Z,33
2017-06-13T03:24:27.255Z,39
2017-06-13T03:25:27.175Z,39
2017-06-13T03:26:27.247Z,39
2017-06-13T03:27:27.269Z,39
2017-06-13T03:28:27.243Z,45
2017-06-13T03:29:27.258Z,45
2017-06-13T03:30:27.243Z,50
2017-06-13T03:31:27.247Z,56
2017-06-13T03:32:27.245Z,61
2017-06-13T03:33:27.247Z,73
2017-06-13T03:34:27.246Z,78
2017-06-13T03:35:27.246Z,84
2017-06-13T03:36:27.245Z,90
2017-06-13T03:37:27.255Z,90
2017-06-13T03:38:27.182Z,90
2017-06-13T03:39:27.274Z,90
2017-06-13T03:40:27.188Z,95
2017-06-13T03:41:27.264Z,101
2017-06-13T03:42:27.274Z,101
2017-06-13T03:43:27.179Z,101
2017-06-13T03:44:27.206Z,106
2017-06-13T03:45:27.228Z,106
2017-06-13T03:46:27.275Z,106
2017-06-13T03:47:27.203Z,106
2017-06-13T03:48:27.255Z,101
2017-06-13T03:49:27.254Z,101
2017-06-13T03:50:27.254Z,101
2017-06-13T03:51:27.255Z,106
2017-06-13T03:52:27.269Z,106
2017-06-13T03:53:27.252Z,112
2017-06-13T03:54:27.260Z,118
2017-06-13T03:55:27.254Z,118
2017-06-13T03:56:27.256Z,118
2017-06-13T03:57:27.264Z,123
2017-06-13T03:58:27.242Z,129
2017-06-13T03:59:27.245Z,135
2017-06-13T04:00:27.248Z,140
2017-06-13T04:01:27.247Z,146
2017-06-13T04:02:27.249Z,146
2017-06-13T04:03:27.235Z,151
2017-06-13T04:04:27.248Z,157
2017-06-13T04:05:27.248Z,157
2017-06-13T04:06:27.250Z,163
2017-06-13T04:07:27.250Z,157
2017-06-13T04:08:27.249Z,151
2017-06-13T04:09:27.251Z,146
2017-06-13T04:10:27.249Z,140
2017-06-13T04:11:27.254Z,140
2017-06-13T04:12:27.247Z,140
2017-06-13T04:13:27.353Z,146
2017-06-13T04:14:27.252Z,151
2017-06-13T04:15:27.250Z,163
2017-06-13T04:16:27.256Z,174
2017-06-13T04:17:27.252Z,185
2017-06-13T04:18:27.267Z,191
2017-06-13T04:19:27.242Z,196
2017-06-13T04:20:27.269Z,202
2017-06-13T04:21:27.272Z,208
2017-06-13T04:22:27.271Z,213
2017-06-13T04:23:27.269Z,213
2017-06-13T04:24:27.226Z,208
2017-06-13T04:25:27.276Z,213
2017-06-13T04:26:27.269Z,208
2017-06-13T04:27:27.278Z,196
2017-06-13T04:28:27.291Z,191
2017-06-13T04:29:27.215Z,185
2017-06-13T04:30:27.296Z,191
2017-06-13T04:31:27.291Z,191
2017-06-13T04:32:27.250Z,196
2017-06-13T04:33:27.299Z,196
2017-06-13T04:34:27.271Z,202
2017-06-13T04:35:27.316Z,196
2017-06-13T04:36:27.297Z,191
2017-06-13T04:37:27.297Z,202
2017-06-13T04:38:27.298Z,219
2017-06-13T04:39:27.283Z,247
2017-06-13T04:40:27.259Z,253
2017-06-13T04:41:27.308Z,270
2017-06-13T04:42:27.212Z,303
2017-06-13T04:43:27.210Z,320
2017-06-13T04:44:27.280Z,309
2017-06-13T04:45:27.301Z,303
2017-06-13T04:46:27.313Z,309
2017-06-13T04:47:27.220Z,309
2017-06-13T04:48:27.308Z,309
2017-06-13T04:49:27.245Z,315
2017-06-13T04:50:27.261Z,320
2017-06-13T04:51:27.311Z,320
2017-06-13T04:52:27.212Z,303
2017-06-13T04:53:27.193Z,292
2017-06-13T04:54:27.213Z,270
2017-06-13T04:55:27.250Z,264
2017-06-13T04:56:27.313Z,292
2017-06-13T04:57:27.203Z,298
2017-06-13T04:58:27.217Z,281
2017-06-13T04:59:27.287Z,241
2017-06-13T05:00:27.291Z,213
2017-06-13T05:01:27.301Z,196
2017-06-13T05:02:27.293Z,208
2017-06-13T05:03:27.306Z,236
2017-06-13T05:04:27.294Z,275
2017-06-13T05:05:27.298Z,320
2017-06-13T05:06:27.399Z,354
2017-06-13T05:07:27.294Z,388
2017-06-13T05:08:27.294Z,421
2017-06-13T05:09:27.284Z,455
2017-06-13T05:10:27.279Z,483
2017-06-13T05:11:27.285Z,511
2017-06-13T05:12:27.311Z,534
2017-06-13T05:13:27.284Z,556
2017-06-13T05:14:27.285Z,562
2017-06-13T05:15:27.286Z,579
2017-06-13T05:16:27.287Z,590
2017-06-13T05:17:27.287Z,613
2017-06-13T05:18:27.286Z,624
2017-06-13T05:19:27.313Z,646
2017-06-13T05:20:27.301Z,669
2017-06-13T05:21:27.323Z,680
2017-06-13T05:22:27.243Z,675
2017-06-13T05:23:27.242Z,675
2017-06-13T05:24:27.324Z,675
2017-06-13T05:25:27.323Z,697
2017-06-13T05:26:27.235Z,720
2017-06-13T05:27:27.328Z,725
2017-06-13T05:28:27.240Z,742
2017-06-13T05:29:27.305Z,753
2017-06-13T05:30:27.308Z,753
2017-06-13T05:31:27.306Z,731
2017-06-13T05:32:27.305Z,736
2017-06-13T05:33:27.306Z,793
2017-06-13T05:34:27.310Z,838
2017-06-13T05:35:27.310Z,855
2017-06-13T05:36:27.309Z,871
2017-06-13T05:37:27.391Z,860
2017-06-13T05:38:27.309Z,866
2017-06-13T05:39:27.313Z,883
2017-06-13T05:40:27.315Z,905
2017-06-13T05:41:27.315Z,911
2017-06-13T05:42:27.423Z,961
2017-06-13T05:43:27.315Z,1006
2017-06-13T05:44:27.315Z,1001
2017-06-13T05:45:27.317Z,984
2017-06-13T05:46:27.320Z,995
2017-06-13T05:47:27.315Z,1001
2017-06-13T05:48:27.323Z,990
2017-06-13T05:49:27.242Z,973
2017-06-13T05:50:27.233Z,1001
2017-06-13T05:51:27.320Z,1057
2017-06-13T05:52:27.324Z,1113
2017-06-13T05:53:27.242Z,1203
2017-06-13T05:54:27.245Z,1215
2017-06-13T05:55:27.278Z,1147
2017-06-13T05:56:27.235Z,1175
2017-06-13T05:57:27.278Z,1175
2017-06-13T05:58:27.234Z,1074
2017-06-13T05:59:27.247Z,978
2017-06-13T06:00:27.321Z,945
2017-06-13T06:01:27.328Z,888
2017-06-13T06:02:27.342Z,821
2017-06-13T06:03:27.328Z,759
2017-06-13T06:04:27.326Z,691
2017-06-13T06:05:27.334Z,624
2017-06-13T06:06:27.301Z,545
2017-06-13T06:07:27.332Z,483
2017-06-13T06:08:27.329Z,461
2017-06-13T06:09:27.308Z,472
2017-06-13T06:10:27.354Z,495
2017-06-13T06:11:27.307Z,545
2017-06-13T06:12:27.264Z,630
2017-06-13T06:13:27.351Z,714
2017-06-13T06:14:27.349Z,843
2017-06-13T06:15:27.327Z,990
2017-06-13T06:16:27.329Z,1085
2017-06-13T06:17:27.358Z,1181
2017-06-13T06:18:27.334Z,1288
2017-06-13T06:19:27.236Z,1333
2017-06-13T06:20:27.258Z,1406
2017-06-13T06:21:27.242Z,1496
2017-06-13T06:22:27.312Z,1569
2017-06-13T06:23:27.263Z,1546
2017-06-13T06:24:27.309Z,1479
2017-06-13T06:25:27.306Z,1428
2017-06-13T06:26:27.310Z,1366
2017-06-13T06:27:27.249Z,1260
2017-06-13T06:28:27.241Z,1125
2017-06-13T06:29:27.357Z,1068
2017-06-13T06:30:27.363Z,1108
2017-06-13T06:31:27.333Z,1164
2017-06-13T06:32:27.359Z,1186
2017-06-13T06:33:27.356Z,1186
2017-06-13T06:34:27.277Z,1248
2017-06-13T06:35:27.267Z,1344
2017-06-13T06:36:27.366Z,1389
2017-06-13T06:37:27.301Z,1366
2017-06-13T06:38:27.271Z,1366
2017-06-13T06:39:27.335Z,1395
2017-06-13T06:40:27.337Z,1389
2017-06-13T06:41:27.357Z,1383
2017-06-13T06:42:27.333Z,1378
2017-06-13T06:43:27.334Z,1254
2017-06-13T06:44:27.334Z,1096
2017-06-13T06:45:27.337Z,1029
2017-06-13T06:46:27.339Z,1080
2017-06-13T06:47:27.338Z,1164
2017-06-13T06:48:27.336Z,1271
2017-06-13T06:49:27.344Z,1361
2017-06-13T06:50:27.339Z,1462
2017-06-13T06:51:27.341Z,1575
2017-06-13T06:52:27.338Z,1693
2017-06-13T06:53:27.343Z,1800
2017-06-13T06:54:27.360Z,1895
2017-06-13T06:55:27.339Z,1918
2017-06-13T06:56:27.339Z,1923
2017-06-13T06:57:27.348Z,1861
2017-06-13T06:58:27.341Z,1845
2017-06-13T06:59:27.352Z,1867
2017-06-13T07:00:27.377Z,1890
2017-06-13T07:01:27.297Z,1895
2017-06-13T07:02:27.375Z,1878
2017-06-13T07:03:27.376Z,1845
2017-06-13T07:04:27.291Z,1918
2017-06-13T07:05:27.337Z,2008
2017-06-13T07:06:27.376Z,2075
2017-06-13T07:07:27.291Z,2030
2017-06-13T07:08:27.375Z,1912
2017-06-13T07:09:27.331Z,1839
2017-06-13T07:10:27.383Z,1861
2017-06-13T07:11:27.336Z,1951
2017-06-13T07:12:27.331Z,1980
2017-06-13T07:13:27.286Z,1980
2017-06-13T07:14:27.338Z,1929
2017-06-13T07:15:27.319Z,1946
2017-06-13T07:16:27.265Z,1895
2017-06-13T07:17:27.319Z,1906
2017-06-13T07:18:27.280Z,1923
2017-06-13T07:19:27.341Z,1923
2017-06-13T07:20:27.373Z,1878
2017-06-13T07:21:27.392Z,1839
2017-06-13T07:22:27.376Z,1873
2017-06-13T07:23:27.379Z,1873
2017-06-13T07:24:27.301Z,1845
2017-06-13T07:25:27.386Z,1850
2017-06-13T07:26:27.378Z,1856
2017-06-13T07:27:27.386Z,1890
2017-06-13T07:28:27.348Z,2030
2017-06-13T07:29:27.366Z,2193
2017-06-13T07:30:27.367Z,2255
2017-06-13T07:31:27.359Z,2143
2017-06-13T07:32:27.365Z,2002
2017-06-13T07:33:27.366Z,1845
2017-06-13T07:34:27.361Z,1783
2017-06-13T07:35:27.369Z,1693
2017-06-13T07:36:27.360Z,1563
2017-06-13T07:37:27.367Z,1361
2017-06-13T07:38:27.363Z,1175
2017-06-13T07:39:27.349Z,1085
2017-06-13T07:40:27.307Z,1035
2017-06-13T07:41:27.354Z,1018
2017-06-13T07:42:27.394Z,928
2017-06-13T07:43:27.398Z,793
2017-06-13T07:44:27.394Z,731
2017-06-13T07:45:27.358Z,714
2017-06-13T07:46:27.317Z,708
2017-06-13T07:47:27.304Z,703
2017-06-13T07:48:27.356Z,725
2017-06-13T07:49:27.421Z,703
2017-06-13T07:50:27.370Z,635
2017-06-13T07:51:27.453Z,585
2017-06-13T07:52:27.372Z,596
2017-06-13T07:53:27.371Z,646
2017-06-13T07:54:27.372Z,691
2017-06-13T07:55:27.371Z,770
2017-06-13T07:56:27.370Z,894
2017-06-13T07:57:27.374Z,928
2017-06-13T07:58:27.374Z,838
2017-06-13T07:59:27.373Z,736
2017-06-13T08:00:27.343Z,697
2017-06-13T08:01:27.298Z,759
2017-06-13T08:02:27.415Z,916
2017-06-13T08:03:27.304Z,1102
2017-06-13T08:04:27.308Z,1175
2017-06-13T08:05:27.361Z,1119
2017-06-13T08:06:27.307Z,973
2017-06-13T08:07:27.314Z,855
2017-06-13T08:08:27.360Z,832
2017-06-13T08:09:27.359Z,866
2017-06-13T08:10:27.376Z,905
2017-06-13T08:11:27.381Z,916
2017-06-13T08:12:27.381Z,905
2017-06-13T08:13:27.380Z,888
2017-06-13T08:14:27.379Z,905
2017-06-13T08:15:27.386Z,939
2017-06-13T08:16:27.378Z,1001
2017-06-13T08:17:27.387Z,1080
2017-06-13T08:18:27.381Z,1192
2017-06-13T08:19:27.384Z,1350
2017-06-13T08:20:27.390Z,1513
2017-06-13T08:21:27.389Z,1687
2017-06-13T08:22:27.388Z,1805
2017-06-13T08:23:27.394Z,1755
2017-06-13T08:24:27.490Z,1485
2017-06-13T08:25:27.391Z,1175
2017-06-13T08:26:27.397Z,990
2017-06-13T08:27:27.393Z,928
2017-06-13T08:28:27.391Z,961
2017-06-13T08:29:27.393Z,1063
2017-06-13T08:30:27.383Z,1164
2017-06-13T08:31:27.419Z,1305
2017-06-13T08:32:27.340Z,1473
2017-06-13T08:33:27.384Z,1659
2017-06-13T08:34:27.416Z,1822
2017-06-13T08:35:27.423Z,1901
2017-06-13T08:36:27.410Z,1918
2017-06-13T08:37:27.423Z,1974
2017-06-13T08:38:27.425Z,2070
2017-06-13T08:39:27.351Z,2188
2017-06-13T08:40:27.346Z,2362
2017-06-13T08:41:27.439Z,2553
2017-06-13T08:42:27.422Z,2604
2017-06-13T08:43:27.344Z,2536
2017-06-13T08:44:27.429Z,2182
2017-06-13T08:45:27.431Z,1991
2017-06-13T08:46:27.435Z,1816
2017-06-13T08:47:27.429Z,1648
2017-06-13T08:48:27.410Z,1501
2017-06-13T08:49:27.439Z,1434
2017-06-13T08:50:27.415Z,1440
2017-06-13T08:51:27.352Z,1411
2017-06-13T08:52:27.433Z,1344
2017-06-13T08:53:27.347Z,1271
2017-06-13T08:54:27.356Z,1231
2017-06-13T08:55:27.352Z,1226
2017-06-13T08:56:27.444Z,1203
2017-06-13T08:57:27.436Z,1108
2017-06-13T08:58:27.371Z,1001
2017-06-13T08:59:27.436Z,961
2017-06-13T09:00:27.444Z,945
2017-06-13T09:01:27.439Z,894
2017-06-13T09:02:27.358Z,810
2017-06-13T09:03:27.362Z,736
2017-06-13T09:04:27.359Z,736
2017-06-13T09:05:27.428Z,781
2017-06-13T09:06:27.425Z,860
2017-06-13T09:07:27.439Z,973
2017-06-13T09:08:27.444Z,1147
2017-06-13T09:09:27.425Z,1411
2017-06-13T09:10:27.425Z,1563
2017-06-13T09:11:27.441Z,1569
2017-06-13T09:12:27.523Z,1541
2017-06-13T09:13:27.406Z,1546
2017-06-13T09:14:27.440Z,1586
2017-06-13T09:15:27.448Z,1653
2017-06-13T09:16:27.472Z,1687
2017-06-13T09:17:27.368Z,1659
2017-06-13T09:18:27.449Z,1597
2017-06-13T09:19:27.449Z,1524
2017-06-13T09:20:27.432Z,1468
2017-06-13T09:21:27.457Z,1406
2017-06-13T09:22:27.432Z,1350
2017-06-13T09:23:27.433Z,1293
2017-06-13T09:24:27.434Z,1226
2017-06-13T09:25:27.437Z,1153
2017-06-13T09:26:27.439Z,1102
2017-06-13T09:27:27.437Z,1096
2017-06-13T09:28:27.437Z,1130
2017-06-13T09:29:27.535Z,1215
2017-06-13T09:30:27.434Z,1333
2017-06-13T09:31:27.448Z,1473
2017-06-13T09:32:27.460Z,1614
2017-06-13T09:33:27.382Z,1749
2017-06-13T09:34:27.436Z,1867
2017-06-13T09:35:27.461Z,1923
2017-06-13T09:36:27.381Z,1957
2017-06-13T09:37:27.462Z,2019
2017-06-13T09:38:27.455Z,2137
2017-06-13T09:39:27.457Z,2266
2017-06-13T09:40:27.360Z,2356
2017-06-13T09:41:27.442Z,2475
2017-06-13T09:42:27.442Z,2542
2017-06-13T09:43:27.439Z,2520
2017-06-13T09:44:27.446Z,2430
2017-06-13T09:45:27.447Z,2458
2017-06-13T09:46:27.445Z,2581
2017-06-13T09:47:27.461Z,2688
2017-06-13T09:48:27.446Z,2863
2017-06-13T09:49:27.445Z,2806
2017-06-13T09:50:27.442Z,2880
2017-06-13T09:51:27.476Z,2958
2017-06-13T09:52:27.451Z,2930
2017-06-13T09:53:27.450Z,2795
2017-06-13T09:54:27.447Z,2784
2017-06-13T09:55:27.451Z,2671
2017-06-13T09:56:27.448Z,2722
2017-06-13T09:57:27.454Z,2750
2017-06-13T09:58:27.451Z,2795
2017-06-13T09:59:27.453Z,2806
2017-06-13T10:00:27.377Z,3150
2017-06-13T10:01:27.471Z,2666
2017-06-13T10:02:27.383Z,2818
2017-06-13T10:03:27.474Z,2908
2017-06-13T10:04:27.385Z,2902
2017-06-13T10:05:27.475Z,2840
2017-06-13T10:06:27.379Z,2711
2017-06-13T10:07:27.386Z,2587
2017-06-13T10:08:27.393Z,2379
2017-06-13T10:09:27.475Z,2323
2017-06-13T10:10:27.475Z,2328
2017-06-13T10:11:27.397Z,2317
2017-06-13T10:12:27.393Z,2160
2017-06-13T10:13:27.395Z,1940
2017-06-13T10:14:27.451Z,1693
2017-06-13T10:15:27.397Z,1445
2017-06-13T10:16:27.395Z,1170
2017-06-13T10:17:27.478Z,905
2017-06-13T10:18:27.484Z,708
2017-06-13T10:19:27.486Z,596
2017-06-13T10:20:27.484Z,551
2017-06-13T10:21:27.494Z,528
2017-06-13T10:22:27.460Z,517
2017-06-13T10:23:27.395Z,517
2017-06-13T10:24:27.515Z,534
2017-06-13T10:25:27.405Z,545
2017-06-13T10:26:27.485Z,562
2017-06-13T10:27:27.464Z,613
2017-06-13T10:28:27.487Z,658
2017-06-13T10:29:27.477Z,691
2017-06-13T10:30:27.466Z,714
2017-06-13T10:31:27.466Z,720
2017-06-13T10:32:27.485Z,708
2017-06-13T10:33:27.451Z,697
2017-06-13T10:34:27.467Z,703
2017-06-13T10:35:27.500Z,736
2017-06-13T10:36:27.408Z,748
2017-06-13T10:37:27.484Z,781
2017-06-13T10:38:27.417Z,838
2017-06-13T10:39:27.597Z,900
2017-06-13T10:40:27.478Z,995
2017-06-13T10:41:27.476Z,1113
2017-06-13T10:42:27.473Z,1237
2017-06-13T10:43:27.474Z,1333
2017-06-13T10:44:27.476Z,1361
2017-06-13T10:45:27.480Z,1389
2017-06-13T10:46:27.476Z,1507
2017-06-13T10:47:27.487Z,1766
2017-06-13T10:48:27.477Z,2064
2017-06-13T10:49:27.484Z,2446
2017-06-13T10:50:27.478Z,2874
2017-06-13T10:52:27.416Z,4050
2017-06-13T10:53:27.415Z,5608
2017-06-13T10:54:27.477Z,3976
2017-06-13T10:55:27.503Z,3690
2017-06-13T10:56:27.412Z,3560
2017-06-13T10:57:27.509Z,3487
2017-06-13T10:58:27.416Z,3465
2017-06-13T10:59:27.424Z,3414
2017-06-13T11:00:27.414Z,3268
2017-06-13T11:01:27.501Z,3048
2017-06-13T11:02:27.503Z,2835
2017-06-13T11:03:27.505Z,2632
2017-06-13T11:04:27.507Z,2486
2017-06-13T11:05:27.501Z,2373
2017-06-13T11:06:27.481Z,2289
2017-06-13T11:07:27.566Z,2244
2017-06-13T11:08:27.506Z,2205
2017-06-13T11:09:27.501Z,2221
2017-06-13T11:10:27.509Z,2311
2017-06-13T11:11:27.509Z,2463
2017-06-13T11:12:27.513Z,2587
2017-06-13T11:13:27.514Z,2750
2017-06-13T11:14:27.516Z,2936
2017-06-13T11:15:27.518Z,3313
2017-06-13T11:16:27.430Z,3549
2017-06-13T11:17:27.514Z,3915
2017-06-13T11:18:27.423Z,5973
2017-06-13T11:19:27.513Z,4089
2017-06-13T11:20:27.522Z,7756
2017-06-13T11:21:27.482Z,4921
2017-06-13T11:22:27.487Z,4325
2017-06-13T11:23:27.482Z,4061
2017-06-13T11:24:27.488Z,3819
2017-06-13T11:25:27.486Z,3487
2017-06-13T11:26:27.487Z,3161
2017-06-13T11:27:27.488Z,2818
2017-06-13T11:28:27.490Z,2553
2017-06-13T11:29:27.492Z,2396
2017-06-13T11:30:27.488Z,2317
2017-06-13T11:31:27.523Z,2233
2017-06-13T11:32:27.513Z,2126
2017-06-13T11:33:27.522Z,1991
2017-06-13T11:34:27.518Z,1890
2017-06-13T11:35:27.480Z,1895
2017-06-13T11:36:27.517Z,1951
2017-06-13T11:37:27.517Z,1918
2017-06-13T11:38:27.444Z,1816
2017-06-13T11:39:27.519Z,1715
2017-06-13T11:40:27.442Z,1665
2017-06-13T11:41:27.468Z,1659
2017-06-13T11:42:27.442Z,1738
2017-06-13T11:43:27.440Z,1856
2017-06-13T11:44:27.539Z,1963
2017-06-13T11:45:27.528Z,2013
2017-06-13T11:46:27.505Z,2070
2017-06-13T11:47:27.528Z,2154
2017-06-13T11:48:27.531Z,2244
2017-06-13T11:49:27.537Z,2396
2017-06-13T11:50:27.446Z,2649
2017-06-13T11:51:27.528Z,2908
2017-06-13T11:52:27.509Z,3150
2017-06-13T11:53:27.443Z,3211
2017-06-13T11:54:27.527Z,3279
2017-06-13T11:55:27.526Z,3566
2017-06-13T11:56:27.543Z,4168
2017-06-13T11:57:27.535Z,3751
2017-06-13T11:58:27.537Z,6868
2017-06-13T11:59:27.495Z,4511
2017-06-13T12:00:27.541Z,3892
2017-06-13T12:01:27.504Z,5191
2017-06-13T12:02:27.505Z,5265
2017-06-13T12:03:27.509Z,4179
2017-06-13T12:04:27.505Z,3954
2017-06-13T12:05:27.607Z,4196
2017-06-13T12:06:27.510Z,4359
2017-06-13T12:07:27.507Z,3645
2017-06-13T12:08:27.507Z,3420
2017-06-13T12:09:27.509Z,3397
2017-06-13T12:10:27.508Z,3251
2017-06-13T12:11:27.519Z,3240
2017-06-13T12:12:27.517Z,3256
2017-06-13T12:13:27.466Z,3279
2017-06-13T12:14:27.467Z,3414
2017-06-13T12:15:27.545Z,3172
2017-06-13T12:16:27.462Z,3031
2017-06-13T12:17:27.545Z,2986
2017-06-13T12:18:27.546Z,3088
2017-06-13T12:19:27.541Z,3043
2017-06-13T12:20:27.469Z,3088
2017-06-13T12:21:27.518Z,3273
2017-06-13T12:22:27.516Z,3037
2017-06-13T12:23:27.519Z,2868
2017-06-13T12:24:27.520Z,2761
2017-06-13T12:25:27.519Z,2655
2017-06-13T12:26:27.519Z,2536
2017-06-13T12:27:27.519Z,2424
2017-06-13T12:28:27.519Z,2250
2017-06-13T12:29:27.522Z,2047
2017-06-13T12:30:27.520Z,1906
2017-06-13T12:31:27.529Z,1940
2017-06-13T12:32:27.551Z,2154
2017-06-13T12:33:27.529Z,2441
2017-06-13T12:34:27.560Z,2739
2017-06-13T12:35:27.553Z,2891
2017-06-13T12:36:27.550Z,2913
2017-06-13T12:37:27.469Z,3009
2017-06-13T12:38:27.552Z,3234
2017-06-13T12:39:27.473Z,3881
2017-06-13T12:40:27.537Z,3285
2017-06-13T12:41:27.528Z,3093
2017-06-13T12:42:27.529Z,3037
2017-06-13T12:43:27.527Z,3020
2017-06-13T12:44:27.526Z,2958
2017-06-13T12:45:27.528Z,3043
2017-06-13T12:46:27.530Z,4100
2017-06-13T12:47:27.529Z,3009
2017-06-13T12:48:27.530Z,2683
2017-06-13T12:49:27.531Z,2739
2017-06-13T12:50:27.532Z,2908
2017-06-13T12:51:27.531Z,3183
2017-06-13T12:52:27.533Z,3211
2017-06-13T12:53:27.531Z,3206
2017-06-13T12:54:27.534Z,3352
2017-06-13T12:55:27.535Z,3538
2017-06-13T12:56:27.534Z,3751
2017-06-13T12:57:27.536Z,3611
2017-06-13T12:58:27.560Z,3566
2017-06-13T12:59:27.536Z,3521
2017-06-13T13:00:27.543Z,3886
2017-06-13T13:01:27.570Z,3577
2017-06-13T13:02:27.564Z,3543
2017-06-13T13:03:27.566Z,4145
2017-06-13T13:04:27.491Z,7875
2017-06-13T13:05:27.571Z,7790
2017-06-13T13:06:27.573Z,7734
2017-06-13T13:07:27.572Z,7695
2017-06-13T13:08:27.577Z,6435
2017-06-13T13:09:27.492Z,3470
2017-06-13T13:10:27.576Z,2874
2017-06-13T13:11:27.544Z,2733
2017-06-13T13:12:27.543Z,3391
2017-06-13T13:13:27.543Z,2728
2017-06-13T13:14:27.544Z,2857
2017-06-13T13:15:27.546Z,2497
2017-06-13T13:16:27.546Z,4303
2017-06-13T13:17:27.544Z,2835
2017-06-13T13:18:27.546Z,2430
2017-06-13T13:19:27.547Z,2345
2017-06-13T13:20:27.552Z,2272
2017-06-13T13:21:27.494Z,2210
2017-06-13T13:22:27.581Z,2165
2017-06-13T13:23:27.492Z,2143
2017-06-13T13:24:27.587Z,2115
2017-06-13T13:25:27.591Z,2103
2017-06-13T13:26:27.592Z,2081
2017-06-13T13:27:27.593Z,2070
2017-06-13T13:28:27.493Z,2041
2017-06-13T13:29:27.583Z,2002
2017-06-13T13:30:27.588Z,2025
2017-06-13T13:31:27.575Z,2086
2017-06-13T13:32:27.498Z,2193
2017-06-13T13:33:27.588Z,2221
2017-06-13T13:34:27.585Z,2171
2017-06-13T13:35:27.501Z,2053
2017-06-13T13:36:27.591Z,1946
2017-06-13T13:37:27.506Z,1873
2017-06-13T13:38:27.504Z,1800
2017-06-13T13:39:27.508Z,1771
2017-06-13T13:40:27.553Z,1760
2017-06-13T13:41:27.500Z,1828
2017-06-13T13:42:27.591Z,1957
2017-06-13T13:43:27.595Z,2115
2017-06-13T13:44:27.592Z,2317
2017-06-13T13:45:27.506Z,2430
2017-06-13T13:46:27.508Z,2570
2017-06-13T13:47:27.600Z,2632